createdAt,value
2018-12-24T00:00:00.560Z,5.30
2018-12-24T00:02:40.089Z,5.30
2018-12-24T00:05:28.426Z,5.30
2018-12-24T00:08:16.812Z,5.30
2018-12-24T00:11:05.335Z,5.30
2018-12-24T00:13:53.844Z,5.30
2018-12-24T00:16:42.285Z,5.30
2018-12-24T00:19:30.682Z,5.30
2018-12-24T00:22:19.076Z,5.30
2018-12-24T00:25:07.421Z,5.30
2018-12-24T00:27:55.808Z,5.30
2018-12-24T00:30:44.243Z,5.30
2018-12-24T00:33:32.641Z,5.30
2018-12-24T00:36:20.969Z,5.30
2018-12-24T00:39:09.375Z,5.30
2018-12-24T00:41:57.736Z,5.30
2018-12-24T00:44:46.204Z,5.20
2018-12-24T00:47:34.599Z,5.20
2018-12-24T00:50:23.057Z,5.30
2018-12-24T00:53:11.432Z,5.20
2018-12-24T00:55:59.795Z,5.10
2018-12-24T00:58:48.113Z,5.00
2018-12-24T01:01:36.482Z,5.00
2018-12-24T01:04:24.836Z,4.90
2018-12-24T01:07:13.317Z,4.90
2018-12-24T01:10:01.680Z,4.70
2018-12-24T01:12:50.132Z,4.60
2018-12-24T01:15:38.485Z,4.40
2018-12-24T01:18:26.901Z,4.30
2018-12-24T01:21:15.282Z,4.30
2018-12-24T01:24:03.642Z,4.20
2018-12-24T01:26:52.032Z,4.20
2018-12-24T01:29:40.419Z,4.10
2018-12-24T01:32:21.900Z,4.10
2018-12-24T01:35:03.370Z,4.10
2018-12-24T01:37:44.915Z,4.10
2018-12-24T01:40:26.619Z,4.00
2018-12-24T01:45:50.136Z,3.90
2018-12-24T01:48:30.840Z,3.90
2018-12-24T01:51:00.163Z,3.90
2018-12-24T01:53:29.416Z,3.90
2018-12-24T01:55:58.650Z,3.90
2018-12-24T01:58:47.041Z,3.90
2018-12-24T02:01:35.394Z,3.90
2018-12-24T02:04:23.735Z,3.90
2018-12-24T02:07:04.807Z,3.80
2018-12-24T02:09:46.058Z,3.70
2018-12-24T02:12:27.200Z,3.60
2018-12-24T02:15:08.088Z,3.60
2018-12-24T02:17:49.177Z,3.50
2018-12-24T02:20:30.499Z,3.40
2018-12-24T02:23:11.511Z,3.40
2018-12-24T02:25:52.135Z,3.40
2018-12-24T02:28:31.712Z,3.40
2018-12-24T02:31:20.058Z,3.40
2018-12-24T02:34:08.674Z,3.50
2018-12-24T02:36:56.973Z,3.50
2018-12-24T02:39:45.327Z,3.40
2018-12-24T02:42:33.715Z,3.50
2018-12-24T02:45:22.068Z,3.40
2018-12-24T02:48:10.557Z,3.40
2018-12-24T02:50:58.938Z,3.40
2018-12-24T02:53:47.306Z,3.40
2018-12-24T02:56:35.639Z,3.40
2018-12-24T02:59:24.032Z,3.40
2018-12-24T03:02:12.360Z,3.50
2018-12-24T03:05:00.756Z,3.50
2018-12-24T03:07:49.121Z,3.50
2018-12-24T03:10:37.497Z,3.40
2018-12-24T03:13:25.814Z,3.40
2018-12-24T03:16:14.174Z,3.30
2018-12-24T03:19:02.512Z,3.30
2018-12-24T03:21:50.889Z,3.30
2018-12-24T03:24:39.216Z,3.20
2018-12-24T03:27:27.663Z,3.20
2018-12-24T03:30:16.056Z,3.20
2018-12-24T03:33:04.477Z,3.20
2018-12-24T03:35:52.833Z,3.20
2018-12-24T03:38:41.220Z,3.10
2018-12-24T03:41:29.582Z,3.10
2018-12-24T03:44:18.147Z,3.10
2018-12-24T03:47:06.556Z,3.10
2018-12-24T03:49:55.012Z,3.10
2018-12-24T03:52:43.387Z,3.10
2018-12-24T03:55:31.765Z,3.10
2018-12-24T03:58:20.099Z,3.10
2018-12-24T04:01:08.469Z,3.10
2018-12-24T04:03:56.879Z,3.10
2018-12-24T04:06:38.317Z,3.10
2018-12-24T04:09:19.257Z,3.00
2018-12-24T04:12:00.209Z,3.00
2018-12-24T04:14:41.227Z,3.00
2018-12-24T04:17:22.328Z,3.00
2018-12-24T04:19:51.703Z,3.00
2018-12-24T04:22:40.076Z,2.90
2018-12-24T04:25:28.459Z,2.90
2018-12-24T04:28:16.947Z,2.90
2018-12-24T04:31:05.373Z,2.90
2018-12-24T04:34:14.411Z,2.90
2018-12-24T04:37:02.905Z,2.90
2018-12-24T04:39:51.341Z,2.80
2018-12-24T04:42:39.875Z,2.80
2018-12-24T04:45:28.205Z,2.80
2018-12-24T04:48:36.777Z,2.60
2018-12-24T04:51:25.161Z,2.60
2018-12-24T04:54:13.880Z,2.40
2018-12-24T04:57:02.387Z,2.30
2018-12-24T05:00:29.055Z,2.30
2018-12-24T05:03:03.212Z,2.30
2018-12-24T05:05:56.637Z,2.20
2018-12-24T05:09:07.213Z,2.20
2018-12-24T05:12:07.819Z,2.20
2018-12-24T05:15:18.575Z,2.20
2018-12-24T05:18:08.898Z,2.20
2018-12-24T05:21:08.489Z,2.20
2018-12-24T05:23:59.539Z,2.20
2018-12-24T05:27:11.545Z,2.10
2018-12-24T05:30:17.263Z,2.00
2018-12-24T05:32:55.211Z,2.10
2018-12-24T05:35:43.621Z,2.00
2018-12-24T05:38:32.053Z,1.90
2018-12-24T05:41:21.082Z,2.00
2018-12-24T05:44:09.594Z,2.00
2018-12-24T05:46:58.101Z,2.00
2018-12-24T05:49:46.506Z,2.00
2018-12-24T05:52:34.938Z,2.10
2018-12-24T05:55:24.527Z,2.00
2018-12-24T05:57:53.806Z,2.00
2018-12-24T06:00:23.018Z,2.00
2018-12-24T06:03:11.436Z,1.90
2018-12-24T06:05:59.794Z,1.90
2018-12-24T06:08:40.574Z,1.90
2018-12-24T06:11:24.575Z,1.80
2018-12-24T06:16:56.896Z,1.50
2018-12-24T06:19:38.830Z,1.40
2018-12-24T06:22:20.882Z,1.40
2018-12-24T06:27:32.728Z,1.30
2018-12-24T06:30:01.958Z,1.30
2018-12-24T06:32:50.374Z,1.30
2018-12-24T06:42:18.635Z,1.30
2018-12-24T06:45:40.557Z,1.30
2018-12-24T06:48:18.855Z,1.40
2018-12-24T06:51:07.189Z,1.40
2018-12-24T06:53:55.581Z,1.40
2018-12-24T06:56:43.995Z,1.30
2018-12-24T06:59:32.354Z,1.20
2018-12-24T07:02:20.744Z,1.20
2018-12-24T07:05:09.074Z,1.20
2018-12-24T07:07:49.947Z,1.20
2018-12-24T07:10:31.027Z,1.20
2018-12-24T07:13:13.424Z,1.10
2018-12-24T07:15:58.091Z,1.10
2018-12-24T07:18:39.351Z,1.10
2018-12-24T07:21:20.497Z,1.10
2018-12-24T07:23:50.141Z,1.10
2018-12-24T07:26:19.360Z,1.10
2018-12-24T07:28:58.777Z,1.10
2018-12-24T07:35:00.455Z,1.10
2018-12-24T07:37:51.271Z,1.10
2018-12-24T07:43:41.662Z,1.10
2018-12-24T07:50:15.659Z,1.00
2018-12-24T07:56:32.707Z,0.80
2018-12-24T07:59:23.647Z,0.70
2018-12-24T08:02:32.689Z,0.70
2018-12-24T08:05:01.990Z,0.70
2018-12-24T08:10:42.864Z,0.70
2018-12-24T08:13:51.099Z,0.70
2018-12-24T08:16:58.592Z,0.70
2018-12-24T08:19:46.988Z,0.60
2018-12-24T08:22:54.531Z,0.60
2018-12-24T08:25:43.150Z,0.50
2018-12-24T08:28:31.590Z,0.60
2018-12-24T08:31:29.478Z,0.60
2018-12-24T08:34:50.244Z,0.40
2018-12-24T08:40:02.032Z,0.30
2018-12-24T08:42:41.514Z,0.30
2018-12-24T08:45:29.943Z,0.20
2018-12-24T08:48:18.309Z,0.20
2018-12-24T08:51:25.854Z,0.30
2018-12-24T08:54:14.344Z,0.20
2018-12-24T08:57:01.626Z,0.30
2018-12-24T08:59:50.084Z,0.30
2018-12-24T09:02:19.314Z,0.30
2018-12-24T09:05:07.924Z,0.30
2018-12-24T09:07:52.334Z,0.30
2018-12-24T09:10:33.560Z,0.30
2018-12-24T09:13:14.664Z,0.30
2018-12-24T09:15:55.685Z,0.40
2018-12-24T09:18:41.680Z,0.40
2018-12-24T09:21:23.009Z,0.40
2018-12-24T09:24:04.128Z,0.40
2018-12-24T09:26:47.671Z,0.40
2018-12-24T09:29:33.707Z,0.40
2018-12-24T09:32:07.643Z,0.40
2018-12-24T09:34:50.963Z,0.40
2018-12-24T09:37:35.773Z,0.40
2018-12-24T09:40:16.787Z,0.40
2018-12-24T09:42:57.591Z,0.30
2018-12-24T09:45:41.113Z,0.30
2018-12-24T09:48:25.647Z,0.50
2018-12-24T09:51:13.001Z,0.50
2018-12-24T09:53:54.305Z,0.60
2018-12-24T09:56:35.282Z,0.60
2018-12-24T09:59:16.435Z,0.60
2018-12-24T10:01:57.844Z,0.60
2018-12-24T10:04:39.025Z,0.70
2018-12-24T10:10:21.987Z,0.50
2018-12-24T10:13:02.604Z,0.50
2018-12-24T10:15:45.719Z,0.50
2018-12-24T10:18:29.293Z,0.50
2018-12-24T10:23:52.819Z,0.60
2018-12-24T10:26:22.183Z,0.60
2018-12-24T10:29:13.751Z,0.60
2018-12-24T10:32:02.354Z,0.60
2018-12-24T10:34:50.799Z,0.50
2018-12-24T10:37:31.578Z,0.60
2018-12-24T10:40:12.291Z,0.50
2018-12-24T10:42:53.097Z,0.50
2018-12-24T10:45:33.916Z,0.50
2018-12-24T10:48:14.732Z,0.50
2018-12-24T10:50:55.767Z,0.50
2018-12-24T10:53:36.947Z,0.50
2018-12-24T10:56:21.748Z,0.50
2018-12-24T10:59:03.374Z,0.50
2018-12-24T11:01:44.771Z,0.50
2018-12-24T11:04:26.246Z,0.50
2018-12-24T11:07:07.756Z,0.50
2018-12-24T11:09:49.104Z,0.50
2018-12-24T11:12:30.664Z,0.50
2018-12-24T11:15:11.667Z,0.50
2018-12-24T11:17:53.166Z,0.60
2018-12-24T11:20:34.178Z,0.60
2018-12-24T11:23:15.662Z,0.60
2018-12-24T11:25:59.726Z,0.60
2018-12-24T11:28:40.930Z,0.60
2018-12-24T11:31:22.830Z,0.70
2018-12-24T11:34:04.260Z,0.60
2018-12-24T11:36:45.018Z,0.60
2018-12-24T11:39:26.496Z,0.60
2018-12-24T11:42:07.528Z,0.60
2018-12-24T11:44:48.675Z,0.60
2018-12-24T11:47:29.408Z,0.60
2018-12-24T11:50:11.207Z,0.50
2018-12-24T11:52:51.960Z,0.50
2018-12-24T11:55:32.846Z,0.50
2018-12-24T11:58:13.786Z,0.50
2018-12-24T12:03:37.891Z,0.60
2018-12-24T12:06:19.837Z,0.60
2018-12-24T12:09:01.376Z,0.70
2018-12-24T12:11:42.430Z,0.70
2018-12-24T12:14:23.850Z,0.70
2018-12-24T12:17:04.868Z,0.70
2018-12-24T12:19:46.156Z,0.70
2018-12-24T12:22:27.262Z,0.70
2018-12-24T12:24:56.572Z,0.70
2018-12-24T12:27:45.061Z,0.70
2018-12-24T12:30:33.428Z,0.70
2018-12-24T12:33:21.882Z,0.70
2018-12-24T12:36:10.294Z,0.80
2018-12-24T12:38:58.700Z,0.80
2018-12-24T12:41:47.133Z,0.90
2018-12-24T12:44:35.560Z,0.90
2018-12-24T12:47:04.847Z,0.90
2018-12-24T12:49:53.254Z,1.00
2018-12-24T12:52:41.668Z,1.00
2018-12-24T12:55:30.032Z,1.00
2018-12-24T12:58:18.490Z,1.00
2018-12-24T13:01:06.916Z,1.00
2018-12-24T13:03:36.366Z,0.90
2018-12-24T13:06:24.730Z,0.90
2018-12-24T13:08:54.049Z,0.90
2018-12-24T13:11:23.932Z,0.90
2018-12-24T13:13:53.284Z,1.00
2018-12-24T13:16:41.641Z,1.00
2018-12-24T13:19:30.017Z,1.00
2018-12-24T13:22:18.401Z,1.00
2018-12-24T13:25:07.051Z,0.90
2018-12-24T13:27:55.534Z,0.90
2018-12-24T13:30:43.916Z,1.00
2018-12-24T13:33:32.339Z,1.00
2018-12-24T13:36:20.749Z,1.00
2018-12-24T13:39:09.210Z,0.90
2018-12-24T13:41:57.579Z,0.90
2018-12-24T13:44:45.913Z,0.90
2018-12-24T13:47:34.302Z,1.00
2018-12-24T13:50:22.658Z,1.00
2018-12-24T13:53:11.047Z,1.00
2018-12-24T13:55:59.449Z,1.00
2018-12-24T13:58:48.289Z,1.00
2018-12-24T14:01:36.717Z,1.00
2018-12-24T14:04:25.076Z,1.10
2018-12-24T14:07:13.422Z,1.10
2018-12-24T14:09:54.963Z,1.10
2018-12-24T14:12:36.109Z,1.10
2018-12-24T14:17:59.231Z,1.10
2018-12-24T14:20:40.943Z,1.10
2018-12-24T14:23:22.217Z,1.10
2018-12-24T14:26:03.082Z,1.10
2018-12-24T14:28:44.400Z,1.10
2018-12-24T14:31:25.801Z,1.10
2018-12-24T14:34:07.363Z,1.10
2018-12-24T14:36:48.383Z,1.10
2018-12-24T14:39:29.409Z,1.10
2018-12-24T14:42:10.302Z,1.10
2018-12-24T14:44:51.932Z,1.10
2018-12-24T14:47:32.955Z,1.10
2018-12-24T14:50:13.626Z,1.10
2018-12-24T14:52:54.764Z,1.10
2018-12-24T14:55:35.508Z,1.10
2018-12-24T14:58:16.506Z,1.10
2018-12-24T15:00:57.543Z,1.10
2018-12-24T15:03:38.371Z,1.10
2018-12-24T15:09:32.358Z,1.10
2018-12-24T15:12:13.203Z,1.10
2018-12-24T15:14:53.666Z,1.20
2018-12-24T15:17:34.292Z,1.20
2018-12-24T15:20:15.580Z,1.20
2018-12-24T15:22:56.011Z,1.20
2018-12-24T15:25:37.807Z,1.20
2018-12-24T15:28:18.936Z,1.20
2018-12-24T15:30:59.658Z,1.20
2018-12-24T15:33:40.874Z,1.20
2018-12-24T15:36:21.573Z,1.20
2018-12-24T15:41:45.100Z,1.20
2018-12-24T15:44:25.823Z,1.20
2018-12-24T15:47:06.706Z,1.20
2018-12-24T15:49:47.376Z,1.20
2018-12-24T15:52:28.016Z,1.20
2018-12-24T15:55:08.350Z,1.20
2018-12-24T15:57:48.915Z,1.20
2018-12-24T16:02:59.779Z,1.20
2018-12-24T16:05:47.866Z,1.20
2018-12-24T16:08:35.925Z,1.30
2018-12-24T16:11:23.960Z,1.20
2018-12-24T16:14:12.122Z,1.20
2018-12-24T16:17:00.150Z,1.30
2018-12-24T16:19:48.203Z,1.30
2018-12-24T16:22:36.254Z,1.30
2018-12-24T16:25:24.311Z,1.40
2018-12-24T16:28:12.458Z,1.40
2018-12-24T16:31:00.561Z,1.30
2018-12-24T16:33:48.596Z,1.20
2018-12-24T16:36:36.734Z,1.20
2018-12-24T16:39:24.780Z,1.20
2018-12-24T16:42:12.857Z,1.10
2018-12-24T16:45:02.365Z,1.10
2018-12-24T16:47:50.876Z,1.10
2018-12-24T16:50:39.033Z,1.10
2018-12-24T16:53:27.137Z,1.10
2018-12-24T16:56:15.330Z,1.10
2018-12-24T16:58:56.414Z,1.10
2018-12-24T17:01:36.959Z,1.10
2018-12-24T17:04:17.746Z,1.10
2018-12-24T17:06:59.010Z,1.10
2018-12-24T17:09:40.254Z,1.20
2018-12-24T17:12:21.116Z,1.20
2018-12-24T17:15:01.719Z,1.20
2018-12-24T17:17:42.336Z,1.20
2018-12-24T17:20:23.062Z,1.20
2018-12-24T17:23:04.214Z,1.30
2018-12-24T17:25:44.683Z,1.30
2018-12-24T17:28:25.267Z,1.30
2018-12-24T17:31:05.745Z,1.30
2018-12-24T17:33:46.444Z,1.30
2018-12-24T17:36:26.854Z,1.30
2018-12-24T17:38:55.851Z,1.30
2018-12-24T17:41:43.879Z,1.30
2018-12-24T17:44:31.967Z,1.30
2018-12-24T17:47:20.017Z,1.40
2018-12-24T17:50:08.129Z,1.40
2018-12-24T17:52:56.185Z,1.30
2018-12-24T17:55:44.489Z,1.20
2018-12-24T17:58:32.499Z,1.10
2018-12-24T18:01:20.560Z,1.10
2018-12-24T18:04:09.151Z,1.10
2018-12-24T18:06:58.435Z,1.10
2018-12-24T18:09:46.511Z,1.10
2018-12-24T18:12:34.553Z,1.10
2018-12-24T18:15:22.763Z,1.20
2018-12-24T18:18:10.841Z,1.20
2018-12-24T18:20:58.938Z,1.30
2018-12-24T18:23:46.960Z,1.30
2018-12-24T18:26:35.116Z,1.30
2018-12-24T18:29:23.178Z,1.30
2018-12-24T18:32:11.246Z,1.30
2018-12-24T18:34:59.312Z,1.40
2018-12-24T18:37:28.266Z,1.40
2018-12-24T18:40:16.357Z,1.40
2018-12-24T18:43:04.497Z,1.40
2018-12-24T18:45:33.515Z,1.40
2018-12-24T18:48:02.493Z,1.40
2018-12-24T18:50:31.431Z,1.40
2018-12-24T18:53:00.470Z,1.40
2018-12-24T18:55:48.621Z,1.40
2018-12-24T18:58:36.685Z,1.40
2018-12-24T19:01:24.744Z,1.40
2018-12-24T19:04:12.823Z,1.40
2018-12-24T19:07:00.886Z,1.40
2018-12-24T19:09:48.946Z,1.40
2018-12-24T19:12:30.113Z,1.40
2018-12-24T19:15:10.831Z,1.40
2018-12-24T19:17:41.525Z,1.40
2018-12-24T19:20:10.541Z,1.40
2018-12-24T19:22:58.591Z,1.40
2018-12-24T19:25:46.697Z,1.50
2018-12-24T19:28:34.740Z,1.50
2018-12-24T19:31:22.795Z,1.50
2018-12-24T19:34:11.287Z,1.40
2018-12-24T19:37:00.641Z,1.40
2018-12-24T19:39:48.985Z,1.40
2018-12-24T19:42:37.178Z,1.40
2018-12-24T19:45:25.247Z,1.50
2018-12-24T19:48:13.492Z,1.50
2018-12-24T19:51:01.885Z,1.50
2018-12-24T19:53:49.972Z,1.50
2018-12-24T19:56:38.057Z,1.50
2018-12-24T19:59:26.089Z,1.50
2018-12-24T20:02:14.196Z,1.50
2018-12-24T20:05:02.319Z,1.50
2018-12-24T20:07:50.450Z,1.60
2018-12-24T20:10:38.498Z,1.60
2018-12-24T20:13:19.457Z,1.60
2018-12-24T20:16:00.020Z,1.60
2018-12-24T20:18:40.680Z,1.60
2018-12-24T20:21:21.708Z,1.70
2018-12-24T20:24:02.614Z,1.70
2018-12-24T20:26:43.373Z,1.70
2018-12-24T20:29:24.908Z,1.70
2018-12-24T20:32:06.146Z,1.70
2018-12-24T20:34:46.803Z,1.70
2018-12-24T20:40:09.973Z,1.70
2018-12-24T20:42:50.575Z,1.80
2018-12-24T20:45:31.211Z,1.80
2018-12-24T20:48:12.357Z,1.80
2018-12-24T20:50:53.139Z,1.80
2018-12-24T20:53:33.889Z,1.80
2018-12-24T20:56:14.620Z,1.80
2018-12-24T20:58:55.934Z,1.90
2018-12-24T21:01:36.721Z,1.90
2018-12-24T21:04:17.437Z,1.90
2018-12-24T21:06:58.359Z,1.90
2018-12-24T21:09:39.221Z,1.90
2018-12-24T21:12:19.966Z,1.90
2018-12-24T21:15:01.148Z,1.90
2018-12-24T21:17:41.819Z,1.90
2018-12-24T21:20:23.052Z,2.00
2018-12-24T21:23:03.958Z,1.90
2018-12-24T21:25:43.092Z,2.00
2018-12-24T21:28:31.248Z,2.00
2018-12-24T21:31:19.291Z,2.00
2018-12-24T21:34:07.363Z,2.00
2018-12-24T21:36:55.411Z,2.00
2018-12-24T21:39:43.488Z,2.00
2018-12-24T21:42:31.574Z,2.00
2018-12-24T21:45:19.731Z,1.90
2018-12-24T21:48:07.777Z,2.00
2018-12-24T21:50:55.870Z,2.00
2018-12-24T21:53:43.895Z,1.90
2018-12-24T21:56:31.947Z,1.90
2018-12-24T21:59:20.021Z,1.90
2018-12-24T22:02:08.077Z,1.90
2018-12-24T22:04:56.171Z,1.90
2018-12-24T22:07:44.315Z,2.00
2018-12-24T22:10:13.155Z,2.00
2018-12-24T22:12:42.078Z,2.10
2018-12-24T22:15:30.203Z,2.30
2018-12-24T22:18:18.279Z,2.30
2018-12-24T22:21:06.323Z,2.30
2018-12-24T22:23:54.424Z,2.40
2018-12-24T22:26:42.447Z,2.30
2018-12-24T22:29:30.509Z,2.30
2018-12-24T22:32:18.751Z,2.30
2018-12-24T22:34:47.655Z,2.40
2018-12-24T22:37:28.801Z,2.40
2018-12-24T22:40:09.223Z,2.50
2018-12-24T22:42:49.799Z,2.50
2018-12-24T22:45:30.551Z,2.50
2018-12-24T22:48:11.318Z,2.50
2018-12-24T22:50:52.159Z,2.50
2018-12-24T22:53:32.516Z,2.60
2018-12-24T22:56:13.387Z,2.60
2018-12-24T22:58:54.209Z,2.60
2018-12-24T23:01:34.789Z,2.70
2018-12-24T23:04:15.594Z,2.70
2018-12-24T23:06:56.501Z,2.70
2018-12-24T23:09:37.589Z,2.70
2018-12-24T23:12:18.009Z,2.80
2018-12-24T23:14:58.705Z,2.80
2018-12-24T23:17:39.388Z,2.80
2018-12-24T23:20:19.835Z,2.90
2018-12-24T23:23:00.619Z,2.90
2018-12-24T23:25:41.354Z,2.90
2018-12-24T23:28:22.083Z,2.90
2018-12-24T23:31:03.057Z,2.90
2018-12-24T23:33:44.059Z,3.00
2018-12-24T23:36:25.018Z,3.00
2018-12-24T23:39:06.347Z,3.00
2018-12-24T23:41:47.390Z,3.00
2018-12-24T23:44:31.252Z,3.00
2018-12-24T23:47:12.294Z,3.00
2018-12-24T23:49:55.228Z,3.00
2018-12-24T23:52:36.000Z,3.00
2018-12-24T23:55:16.833Z,3.00
2018-12-24T23:57:57.988Z,3.10
